Terminal Aerodrome Forecast
Issued by NWS

Home | Current Version | Previous Version | Text Only | Print | Product List | Glossary On
Versions: 1 2 3 4 5 6 7 8 9 10 11 12 13
000
FTUS42 KMLB 262300
TAFISM
TAF
KISM 262329Z 2700/2724 03004KT P6SM OVC040
      TEMPO 2709/2713 3SM BR BKN005
     FM271600 09005KT P6SM BKN035
      AMD NOT SKED 2703/2712=

USA.gov is the U.S. government's official web portal to all federal, state and local government web resources and services.